Time;durP1;ratioP1;P1;durP2;ratioP2;P2;SDS_P1;SDS_P2;PMS_P1;PMS_P2;Temp;Humidity;BMP_temperature;BMP_pressure;BME280_temperature;BME280_humidity;BME280_pressure;Samples;Min_cycle;Max_cycle;Signal;HPM_P1;HPM_P2
2022/07/18 00:01:14;;;;;;;3.27;2.40;;;14.40;96.60;;;;;;4980618;28;20257;-83
2022/07/18 00:03:40;;;;;;;4.37;2.97;;;14.30;96.70;;;;;;4997399;28;20249;-84
2022/07/18 00:06:07;;;;;;;3.97;2.50;;;14.30;96.70;;;;;;4982902;28;20224;-84
2022/07/18 00:08:34;;;;;;;2.87;2.07;;;14.20;96.80;;;;;;4983903;28;20234;-84
2022/07/18 00:11:00;;;;;;;3.23;2.20;;;14.20;96.90;;;;;;4983994;28;20224;-84
2022/07/18 00:13:27;;;;;;;2.57;2.07;;;14.20;97.00;;;;;;4985036;28;20829;-85
2022/07/18 00:15:54;;;;;;;2.67;2.20;;;14.10;97.10;;;;;;4990549;28;20228;-84
2022/07/18 00:18:22;;;;;;;2.60;2.13;;;14.10;97.20;;;;;;5000074;28;20235;-84
2022/07/18 00:20:48;;;;;;;4.10;2.10;;;14.10;97.40;;;;;;5016320;28;20225;-84
2022/07/18 00:23:15;;;;;;;3.63;2.00;;;14.00;97.40;;;;;;4982774;28;20301;-83
2022/07/18 00:25:42;;;;;;;2.63;1.97;;;14.00;97.50;;;;;;5014719;28;20773;-83
2022/07/18 00:28:11;;;;;;;2.60;2.00;;;13.90;97.60;;;;;;4980374;28;20304;-82
2022/07/18 00:30:37;;;;;;;3.03;2.00;;;13.90;97.80;;;;;;4983793;28;20224;-85
2022/07/18 00:33:04;;;;;;;3.07;2.20;;;13.90;97.90;;;;;;5011342;28;20220;-83
2022/07/18 00:35:32;;;;;;;3.50;1.90;;;13.90;98.00;;;;;;4976627;28;20830;-84
2022/07/18 00:37:59;;;;;;;2.53;2.03;;;13.90;98.10;;;;;;5008229;28;20228;-83
2022/07/18 00:40:25;;;;;;;2.57;1.97;;;13.90;98.40;;;;;;4980234;28;20235;-86
2022/07/18 00:42:52;;;;;;;3.57;2.00;;;13.90;98.20;;;;;;4985450;28;20255;-86
2022/07/18 00:45:19;;;;;;;2.40;2.20;;;13.90;98.20;;;;;;4982137;28;20232;-87
2022/07/18 00:47:46;;;;;;;3.67;2.30;;;13.90;98.30;;;;;;4985877;28;20328;-86
2022/07/18 00:50:12;;;;;;;3.13;2.00;;;14.00;98.40;;;;;;4986479;28;20233;-86
2022/07/18 00:52:40;;;;;;;2.23;2.00;;;13.90;98.40;;;;;;4985987;28;20219;-87
2022/07/18 00:55:09;;;;;;;2.97;2.40;;;14.00;98.50;;;;;;4982569;28;20237;-86
2022/07/18 00:57:35;;;;;;;2.80;2.00;;;14.00;98.50;;;;;;4986344;28;20233;-86
2022/07/18 01:02:48;;;;;;;2.70;2.20;;;14.00;98.50;;;;;;4996240;28;20222;-87
2022/07/18 01:05:14;;;;;;;5.17;2.30;;;14.00;98.30;;;;;;5012724;28;20236;-86
2022/07/18 01:07:42;;;;;;;3.10;2.20;;;14.00;98.50;;;;;;4978305;28;20244;-86
2022/07/18 01:10:09;;;;;;;2.97;2.50;;;14.00;98.70;;;;;;4981558;28;20225;-85
2022/07/18 01:12:36;;;;;;;3.17;2.67;;;13.90;99.00;;;;;;4983340;28;20231;-85
2022/07/18 01:15:04;;;;;;;5.10;2.23;;;13.90;98.60;;;;;;4985716;28;20235;-86
2022/07/18 01:17:31;;;;;;;3.33;2.20;;;13.90;98.70;;;;;;4983322;28;20247;-85
2022/07/18 01:19:58;;;;;;;2.30;2.00;;;13.90;98.60;;;;;;4997587;28;20231;-85
2022/07/18 01:22:26;;;;;;;2.87;2.40;;;13.80;98.50;;;;;;4982979;28;20251;-84
2022/07/18 01:24:52;;;;;;;2.37;1.90;;;13.80;98.50;;;;;;4983455;28;20258;-83
2022/07/18 01:27:21;;;;;;;2.70;2.00;;;13.80;98.50;;;;;;4979301;28;20228;-84
2022/07/18 01:29:50;;;;;;;3.40;2.23;;;13.80;98.70;;;;;;4983040;28;20673;-85
2022/07/18 01:32:18;;;;;;;3.37;2.30;;;13.70;98.80;;;;;;5012888;28;20235;-85
2022/07/18 01:34:47;;;;;;;3.17;2.20;;;13.70;98.90;;;;;;4974841;28;20245;-85
2022/07/18 01:37:15;;;;;;;3.23;2.40;;;13.70;99.20;;;;;;4980619;28;20315;-84
2022/07/18 01:39:43;;;;;;;3.60;2.23;;;13.60;99.10;;;;;;4981808;28;20231;-84
2022/07/18 01:42:11;;;;;;;2.67;2.10;;;13.60;99.20;;;;;;4975183;28;20226;-84
2022/07/18 01:44:38;;;;;;;4.13;2.00;;;13.60;99.30;;;;;;4982749;28;20232;-84
2022/07/18 01:47:08;;;;;;;2.93;2.17;;;13.50;99.30;;;;;;4985901;28;20232;-85
2022/07/18 01:49:35;;;;;;;3.87;2.60;;;13.50;99.40;;;;;;4979467;28;20225;-86
2022/07/18 01:52:03;;;;;;;4.07;2.70;;;13.50;99.40;;;;;;4981999;28;20247;-86
2022/07/18 01:54:32;;;;;;;3.87;2.20;;;13.50;99.40;;;;;;4980671;28;20301;-83
2022/07/18 01:57:00;;;;;;;3.23;2.20;;;13.50;99.50;;;;;;4979204;28;20224;-85
2022/07/18 01:59:27;;;;;;;2.40;2.20;;;13.50;99.60;;;;;;4983578;28;20224;-84
2022/07/18 02:01:54;;;;;;;2.63;2.40;;;13.40;99.30;;;;;;5012767;28;20223;-84
2022/07/18 02:04:58;;;;;;;4.93;2.73;;;13.40;99.20;;;;;;4987462;28;20239;-83
2022/07/18 02:07:07;;;;;;;2.67;2.40;;;13.30;99.40;;;;;;4991572;28;20780;-83
2022/07/18 02:09:34;;;;;;;2.73;2.37;;;13.30;99.60;;;;;;4983497;28;20314;-84
2022/07/18 02:12:02;;;;;;;5.07;2.50;;;13.30;99.80;;;;;;4976321;28;20695;-85
2022/07/18 02:14:30;;;;;;;3.67;2.20;;;13.30;99.90;;;;;;4980743;28;20236;-85
2022/07/18 02:16:56;;;;;;;3.50;2.40;;;13.20;99.90;;;;;;4980528;28;20238;-85
2022/07/18 02:19:23;;;;;;;3.83;2.37;;;13.20;99.90;;;;;;5011483;28;20226;-86
2022/07/18 02:21:50;;;;;;;3.87;2.80;;;13.20;99.90;;;;;;4982236;28;20229;-83
2022/07/18 02:24:16;;;;;;;3.47;2.80;;;13.20;99.90;;;;;;4978303;28;20225;-83
2022/07/18 02:26:43;;;;;;;5.47;2.93;;;13.20;99.90;;;;;;4984742;28;20909;-83
2022/07/18 02:29:11;;;;;;;5.40;2.97;;;13.10;99.90;;;;;;5013123;28;20886;-83
2022/07/18 02:31:38;;;;;;;4.10;2.90;;;13.10;99.90;;;;;;5016218;28;20238;-83
2022/07/18 02:34:09;;;;;;;4.67;3.03;;;13.20;99.90;;;;;;4985384;28;20222;-84
2022/07/18 02:36:36;;;;;;;3.23;2.70;;;13.20;99.90;;;;;;4983085;28;20373;-83
2022/07/18 02:39:04;;;;;;;3.03;2.70;;;13.20;99.90;;;;;;4988736;28;20305;-83
2022/07/18 02:41:30;;;;;;;3.40;2.50;;;13.20;99.90;;;;;;4978968;28;20226;-84
2022/07/18 02:43:57;;;;;;;3.70;2.50;;;13.20;99.90;;;;;;4981372;28;20263;-83
2022/07/18 02:46:25;;;;;;;2.80;2.47;;;13.20;99.90;;;;;;4981749;28;20588;-85
2022/07/18 02:48:52;;;;;;;3.90;2.80;;;13.20;99.90;;;;;;4984483;28;20312;-86
2022/07/18 02:51:19;;;;;;;4.57;3.00;;;13.20;99.90;;;;;;5011735;28;20310;-85
2022/07/18 02:53:46;;;;;;;5.13;3.33;;;13.20;99.90;;;;;;4982627;28;20250;-87
2022/07/18 02:56:13;;;;;;;4.53;3.07;;;13.20;99.90;;;;;;4979834;28;20327;-86
2022/07/18 02:58:40;;;;;;;4.43;2.80;;;13.20;99.90;;;;;;4984682;28;20223;-87
2022/07/18 03:01:07;;;;;;;3.90;2.80;;;13.20;99.90;;;;;;4976210;28;20787;-84
2022/07/18 03:03:35;;;;;;;3.83;2.50;;;13.20;99.90;;;;;;4980787;28;20255;-86
2022/07/18 03:06:02;;;;;;;4.53;2.70;;;13.20;99.90;;;;;;4983592;28;20227;-87
2022/07/18 03:08:29;;;;;;;2.87;2.67;;;13.30;99.90;;;;;;5012885;28;20233;-86
2022/07/18 03:10:55;;;;;;;4.33;2.70;;;13.30;99.90;;;;;;4977304;28;20233;-86
2022/07/18 03:13:22;;;;;;;3.57;2.60;;;13.30;99.90;;;;;;4979675;28;20218;-83
2022/07/18 03:15:49;;;;;;;5.17;2.60;;;13.30;99.90;;;;;;4979337;28;20231;-85
2022/07/18 03:18:17;;;;;;;3.13;2.60;;;13.30;99.90;;;;;;4980717;28;20253;-85
2022/07/18 03:20:45;;;;;;;3.57;2.33;;;13.30;99.90;;;;;;4982955;28;20254;-85
2022/07/18 03:23:11;;;;;;;3.50;2.57;;;13.20;99.90;;;;;;4981594;28;20767;-84
2022/07/18 03:25:38;;;;;;;4.03;3.60;;;13.20;99.90;;;;;;4975556;28;20232;-86
2022/07/18 03:28:05;;;;;;;4.93;3.43;;;13.20;99.90;;;;;;4982812;28;20233;-86
2022/07/18 03:30:32;;;;;;;5.07;3.70;;;13.20;99.90;;;;;;4986268;28;20286;-86
2022/07/18 03:32:58;;;;;;;3.83;3.10;;;13.20;99.90;;;;;;4986396;28;20597;-85
2022/07/18 03:35:25;;;;;;;5.23;3.20;;;13.20;99.90;;;;;;5020379;28;20234;-85
2022/07/18 03:37:53;;;;;;;4.77;3.37;;;13.20;99.90;;;;;;4984345;28;20607;-85
2022/07/18 03:40:20;;;;;;;5.00;3.60;;;13.20;99.90;;;;;;4988012;28;20915;-84
2022/07/18 03:42:47;;;;;;;5.57;3.73;;;13.20;99.90;;;;;;4986110;28;20238;-83
2022/07/18 03:45:13;;;;;;;7.03;3.80;;;13.20;99.90;;;;;;4985930;28;20979;-84
2022/07/18 03:47:40;;;;;;;4.33;3.67;;;13.20;99.90;;;;;;4988209;28;20224;-85
2022/07/18 03:50:08;;;;;;;5.87;4.40;;;13.20;99.90;;;;;;4988167;28;20243;-84
2022/07/18 03:52:35;;;;;;;6.87;4.30;;;13.20;99.90;;;;;;4988441;28;20229;-85
2022/07/18 03:55:03;;;;;;;5.50;4.07;;;13.30;99.90;;;;;;4987912;28;20584;-85
2022/07/18 03:57:30;;;;;;;5.00;4.33;;;13.30;99.90;;;;;;4985892;28;20288;-86
2022/07/18 03:59:57;;;;;;;5.77;4.03;;;13.30;99.90;;;;;;5005268;28;20235;-86
2022/07/18 04:02:23;;;;;;;5.70;4.43;;;13.30;99.90;;;;;;4985524;28;20294;-84
2022/07/18 04:04:50;;;;;;;6.53;4.93;;;13.30;99.90;;;;;;4988361;28;20238;-83
2022/07/18 04:07:17;;;;;;;5.33;3.53;;;13.30;99.90;;;;;;4989662;28;20233;-81
2022/07/18 04:09:43;;;;;;;6.90;4.40;;;13.30;99.90;;;;;;4990884;28;20227;-82
2022/07/18 04:12:11;;;;;;;4.37;3.97;;;13.30;99.90;;;;;;4986401;28;20235;-82
2022/07/18 04:14:38;;;;;;;5.90;4.07;;;13.40;99.90;;;;;;4987270;28;20231;-82
2022/07/18 04:17:04;;;;;;;6.00;4.27;;;13.40;99.90;;;;;;4986501;28;20226;-83
2022/07/18 04:19:31;;;;;;;4.90;3.70;;;13.40;99.90;;;;;;4989479;28;20788;-84
2022/07/18 04:21:58;;;;;;;5.90;4.10;;;13.50;99.90;;;;;;5017862;28;20226;-82
2022/07/18 04:24:25;;;;;;;5.20;3.73;;;13.50;99.90;;;;;;4987266;28;20238;-81
2022/07/18 04:26:51;;;;;;;5.50;4.37;;;13.60;99.90;;;;;;4989427;28;20225;-84
2022/07/18 04:29:19;;;;;;;5.67;3.70;;;13.60;99.90;;;;;;5002492;28;20233;-83
2022/07/18 04:31:46;;;;;;;6.07;3.93;;;13.70;99.90;;;;;;4988960;28;20234;-84
2022/07/18 04:34:13;;;;;;;4.23;3.67;;;13.70;99.90;;;;;;4973264;28;20248;-84
2022/07/18 04:36:40;;;;;;;5.97;3.90;;;13.80;99.90;;;;;;4971133;28;20231;-84
2022/07/18 04:39:06;;;;;;;4.60;3.60;;;13.80;99.90;;;;;;5001148;28;20248;-84
2022/07/18 04:41:33;;;;;;;5.30;3.73;;;13.80;99.90;;;;;;5004985;28;20226;-84
2022/07/18 04:44:00;;;;;;;5.10;3.90;;;13.90;99.90;;;;;;5007056;28;20237;-84
2022/07/18 04:46:28;;;;;;;7.97;3.80;;;13.90;99.90;;;;;;5004567;28;20228;-85
2022/07/18 04:48:54;;;;;;;6.17;3.73;;;14.00;99.90;;;;;;5006519;28;20252;-84
2022/07/18 04:51:21;;;;;;;5.87;4.07;;;14.00;99.90;;;;;;5022738;28;20233;-84
2022/07/18 04:53:48;;;;;;;4.93;3.80;;;14.00;99.90;;;;;;5006623;28;20320;-84
2022/07/18 04:56:14;;;;;;;4.30;3.27;;;14.10;99.90;;;;;;5006481;28;20256;-84
2022/07/18 04:58:41;;;;;;;6.93;4.00;;;14.00;99.90;;;;;;5006380;28;20228;-84
2022/07/18 05:01:08;;;;;;;5.50;4.17;;;14.10;99.90;;;;;;4987550;28;20239;-84
2022/07/18 05:03:36;;;;;;;5.97;4.00;;;14.10;99.90;;;;;;4989150;28;20804;-84
2022/07/18 05:06:03;;;;;;;5.17;3.57;;;14.20;99.90;;;;;;4996759;28;20360;-85
2022/07/18 05:08:29;;;;;;;6.60;3.83;;;14.20;99.90;;;;;;4990976;28;20230;-85
2022/07/18 05:10:56;;;;;;;5.17;3.97;;;14.30;99.90;;;;;;4987893;28;20250;-84
2022/07/18 05:13:23;;;;;;;5.33;3.40;;;14.40;99.90;;;;;;4984683;28;20249;-84
2022/07/18 05:15:50;;;;;;;7.03;4.13;;;14.50;99.90;;;;;;4982638;28;20831;-81
2022/07/18 05:18:16;;;;;;;5.10;3.60;;;14.60;99.90;;;;;;4987640;28;20300;-83
2022/07/18 05:20:44;;;;;;;4.43;3.63;;;14.60;99.90;;;;;;4982214;28;20226;-84
2022/07/18 05:23:11;;;;;;;6.27;3.83;;;14.70;99.90;;;;;;4986736;28;20321;-83
2022/07/18 05:25:38;;;;;;;4.10;3.60;;;14.80;99.90;;;;;;4989252;28;20235;-83
2022/07/18 05:35:17;;;;;;;4.80;3.60;;;15.10;99.90;;;;;;4993373;28;20312;-84
2022/07/18 05:37:45;;;;;;;4.33;3.57;;;15.20;99.90;;;;;;4993784;28;20225;-83
2022/07/18 05:40:14;;;;;;;4.00;3.27;;;15.30;99.90;;;;;;4991570;28;20234;-83
2022/07/18 05:42:41;;;;;;;8.10;3.77;;;15.40;99.90;;;;;;4990702;28;20322;-84
2022/07/18 05:45:11;;;;;;;5.63;3.50;;;15.60;99.90;;;;;;4987704;28;20233;-84
2022/07/18 05:47:37;;;;;;;5.17;3.23;;;15.70;99.90;;;;;;4998672;28;20836;-84
2022/07/18 05:50:06;;;;;;;4.07;3.30;;;15.70;99.90;;;;;;4987875;28;20218;-84
2022/07/18 05:52:32;;;;;;;5.97;3.57;;;15.80;99.90;;;;;;4999077;28;20233;-84
2022/07/18 05:55:00;;;;;;;6.13;3.67;;;15.90;99.90;;;;;;4990668;28;20237;-84
2022/07/18 05:57:27;;;;;;;5.00;3.40;;;15.90;99.90;;;;;;4987655;28;20308;-84
2022/07/18 05:59:54;;;;;;;4.87;3.23;;;15.90;99.90;;;;;;5016639;28;20226;-84
2022/07/18 06:02:20;;;;;;;4.50;3.50;;;15.90;99.90;;;;;;4987646;28;20243;-84
2022/07/18 06:04:47;;;;;;;4.20;3.10;;;16.00;99.90;;;;;;4990087;28;20230;-83
2022/07/18 06:07:14;;;;;;;4.07;3.10;;;16.10;99.90;;;;;;4989940;28;20228;-84
2022/07/18 06:09:41;;;;;;;6.17;3.63;;;16.10;99.90;;;;;;4992607;28;20817;-84
2022/07/18 06:12:09;;;;;;;5.50;3.97;;;16.20;99.90;;;;;;4990943;28;20751;-84
2022/07/18 06:14:36;;;;;;;5.40;3.63;;;16.30;99.90;;;;;;4989028;28;20236;-84
2022/07/18 06:17:03;;;;;;;4.13;3.07;;;16.30;99.90;;;;;;4995661;28;20225;-84
2022/07/18 06:19:29;;;;;;;4.50;3.27;;;16.40;99.90;;;;;;4986722;28;20719;-84
2022/07/18 06:21:57;;;;;;;4.03;3.00;;;16.50;99.90;;;;;;4986212;28;20234;-83
2022/07/18 06:24:24;;;;;;;3.93;3.17;;;16.50;99.90;;;;;;4983365;28;20240;-84
2022/07/18 06:26:50;;;;;;;4.40;3.57;;;16.70;99.90;;;;;;4985736;28;20229;-84
2022/07/18 06:29:18;;;;;;;4.10;3.57;;;16.70;99.90;;;;;;4984964;28;20230;-84
2022/07/18 06:31:45;;;;;;;5.10;3.67;;;16.90;99.50;;;;;;4988910;28;20233;-84
2022/07/18 06:34:12;;;;;;;4.30;3.37;;;17.00;99.10;;;;;;4980128;28;20405;-84
2022/07/18 06:36:38;;;;;;;5.27;2.93;;;17.10;99.20;;;;;;4988650;28;20593;-84
2022/07/18 06:39:10;;;;;;;4.63;3.10;;;17.20;99.00;;;;;;4990444;28;20491;-84
2022/07/18 06:41:37;;;;;;;3.63;3.00;;;17.30;98.50;;;;;;4997026;28;20693;-84
2022/07/18 06:44:06;;;;;;;4.90;3.37;;;17.40;98.40;;;;;;4988001;28;20225;-84
2022/07/18 06:46:36;;;;;;;4.17;3.47;;;17.50;98.30;;;;;;4990895;28;20228;-84
2022/07/18 06:49:03;;;;;;;5.37;3.83;;;17.70;98.10;;;;;;4993772;28;20652;-84
2022/07/18 06:51:30;;;;;;;4.75;3.58;;;17.80;97.80;;;;;;5025070;28;20239;-84
2022/07/18 06:53:58;;;;;;;5.47;3.70;;;17.90;97.70;;;;;;4991648;28;20591;-84
2022/07/18 06:56:25;;;;;;;4.47;3.40;;;18.10;97.50;;;;;;5020847;28;20553;-84
2022/07/18 06:58:52;;;;;;;5.53;3.38;;;18.20;97.50;;;;;;4996470;28;20260;-84
2022/07/18 07:01:20;;;;;;;5.05;3.85;;;18.30;97.50;;;;;;4989779;28;20562;-84
2022/07/18 07:03:48;;;;;;;5.13;4.15;;;18.50;97.30;;;;;;4989567;28;20230;-83
2022/07/18 07:06:16;;;;;;;4.80;3.60;;;18.60;96.70;;;;;;4994240;28;20221;-84
2022/07/18 07:08:42;;;;;;;5.43;3.20;;;18.80;96.70;;;;;;4995488;28;20797;-84
2022/07/18 07:11:09;;;;;;;5.30;3.85;;;18.90;96.50;;;;;;4988721;28;20245;-84
2022/07/18 07:13:36;;;;;;;4.53;3.22;;;19.10;96.30;;;;;;4991558;28;20237;-84
2022/07/18 07:16:03;;;;;;;6.78;3.47;;;19.30;96.20;;;;;;4991528;28;20235;-84
2022/07/18 07:18:30;;;;;;;5.15;3.63;;;19.50;96.20;;;;;;4993851;28;20221;-84
2022/07/18 07:20:58;;;;;;;5.97;3.53;;;19.80;96.30;;;;;;4985318;28;20487;-84
2022/07/18 07:23:24;;;;;;;5.32;4.05;;;20.20;95.30;;;;;;4988721;28;20277;-84
2022/07/18 07:25:51;;;;;;;4.47;3.78;;;20.70;94.90;;;;;;4988920;28;20575;-84
2022/07/18 07:28:18;;;;;;;5.63;3.63;;;21.30;94.70;;;;;;4990163;28;20252;-84
2022/07/18 07:30:45;;;;;;;4.60;3.63;;;21.80;93.10;;;;;;4983571;28;20226;-84
2022/07/18 07:33:12;;;;;;;4.47;4.00;;;22.30;92.30;;;;;;4987006;28;20242;-84
2022/07/18 07:35:38;;;;;;;5.43;3.90;;;22.80;92.00;;;;;;4978117;28;20222;-84
2022/07/18 07:38:07;;;;;;;7.97;4.07;;;23.20;91.50;;;;;;4987551;28;20218;-84
2022/07/18 07:40:33;;;;;;;5.82;3.97;;;23.70;90.70;;;;;;4987491;28;20313;-84
2022/07/18 07:43:08;;;;;;;5.90;4.05;;;24.10;89.40;;;;;;4984901;28;20374;-84
2022/07/18 07:45:35;;;;;;;5.22;4.40;;;24.50;87.30;;;;;;4977771;28;20717;-84
2022/07/18 07:48:02;;;;;;;4.78;3.88;;;24.90;85.60;;;;;;5007210;28;20325;-85
2022/07/18 07:50:29;;;;;;;6.32;4.38;;;25.10;83.70;;;;;;4988215;28;20221;-84
2022/07/18 07:52:56;;;;;;;5.07;3.90;;;25.20;82.60;;;;;;5000542;28;20332;-85
2022/07/18 07:55:25;;;;;;;5.38;4.53;;;25.20;81.70;;;;;;4985907;28;20230;-84
2022/07/18 07:57:52;;;;;;;5.70;4.07;;;25.20;80.40;;;;;;4985647;28;20226;-85
2022/07/18 08:00:18;;;;;;;5.32;4.18;;;25.20;81.50;;;;;;4995062;28;20236;-84
2022/07/18 08:02:53;;;;;;;5.93;4.68;;;25.20;80.40;;;;;;4989660;28;20218;-84
2022/07/18 08:05:20;;;;;;;6.60;4.15;;;25.20;78.00;;;;;;4979818;28;20640;-84
2022/07/18 08:07:47;;;;;;;4.03;3.58;;;25.30;80.10;;;;;;4990546;28;20233;-84
2022/07/18 08:10:14;;;;;;;4.38;3.75;;;25.40;79.00;;;;;;4970840;28;20230;-84
2022/07/18 08:12:42;;;;;;;6.00;4.13;;;25.50;79.30;;;;;;4986151;28;20229;-84
2022/07/18 08:15:10;;;;;;;5.80;4.13;;;25.60;78.90;;;;;;4978629;28;20230;-84
2022/07/18 08:17:36;;;;;;;6.43;4.40;;;25.80;79.20;;;;;;4998925;28;20232;-85
2022/07/18 08:20:04;;;;;;;5.10;4.60;;;25.90;77.10;;;;;;4987581;28;20286;-85
2022/07/18 08:22:31;;;;;;;5.80;4.60;;;26.00;77.10;;;;;;4993533;28;20229;-84
2022/07/18 08:24:57;;;;;;;5.80;4.70;;;26.10;75.10;;;;;;4996048;28;20237;-85
2022/07/18 08:27:24;;;;;;;5.10;4.60;;;26.20;75.50;;;;;;4997368;28;20237;-84
2022/07/18 08:29:52;;;;;;;6.57;5.13;;;26.20;74.50;;;;;;4985170;28;20312;-85
2022/07/18 08:32:19;;;;;;;6.65;4.80;;;26.30;74.30;;;;;;4992234;28;20226;-84
2022/07/18 08:34:45;;;;;;;5.88;4.85;;;26.60;75.00;;;;;;4995128;28;20780;-85
2022/07/18 08:37:12;;;;;;;5.82;4.50;;;26.80;74.10;;;;;;4984986;28;20319;-85
2022/07/18 08:39:39;;;;;;;5.30;4.70;;;27.10;72.60;;;;;;4987714;28;20226;-85
2022/07/18 08:42:07;;;;;;;5.97;4.85;;;27.30;71.90;;;;;;4995558;28;20226;-84
2022/07/18 08:44:36;;;;;;;5.65;4.80;;;27.50;69.80;;;;;;4986114;28;20256;-85
2022/07/18 08:47:07;;;;;;;5.97;4.47;;;27.60;69.60;;;;;;4990695;28;20320;-85
2022/07/18 08:49:35;;;;;;;6.63;4.40;;;27.60;68.90;;;;;;4987637;28;20237;-85
2022/07/18 08:52:03;;;;;;;7.18;5.00;;;27.60;70.20;;;;;;4997316;28;20218;-85
2022/07/18 08:54:30;;;;;;;6.30;4.75;;;27.70;69.10;;;;;;4985306;28;20681;-84
2022/07/18 08:56:57;;;;;;;5.50;4.63;;;27.80;67.90;;;;;;5017969;28;20245;-85
2022/07/18 08:59:24;;;;;;;4.82;4.15;;;27.90;69.00;;;;;;4987032;28;20295;-84
2022/07/18 09:01:50;;;;;;;5.10;4.55;;;27.90;67.80;;;;;;5031377;28;20244;-85
2022/07/18 09:07:23;;;;;;;5.30;4.20;;;28.00;68.90;;;;;;5064631;27;20563;-84
2022/07/18 09:09:53;;;;;;;6.53;4.30;;;28.40;66.40;;;;;;5038437;27;20224;-85
2022/07/18 09:12:20;;;;;;;5.57;4.00;;;28.60;65.70;;;;;;5043682;27;20216;-84
2022/07/18 09:14:47;;;;;;;6.35;4.32;;;28.80;65.30;;;;;;5035998;27;20373;-84
2022/07/18 09:17:16;;;;;;;5.45;4.53;;;28.90;64.30;;;;;;5135211;27;20469;-84
2022/07/18 09:19:59;;;;;;;5.82;4.88;;;28.80;64.00;;;;;;5121792;27;20220;-83
2022/07/18 09:22:30;;;;;;;7.15;4.32;;;28.70;61.90;;;;;;5136976;27;20228;-83
2022/07/18 09:25:02;;;;;;;5.10;4.47;;;28.60;62.60;;;;;;5121749;27;20272;-83
2022/07/18 09:27:33;;;;;;;4.95;4.40;;;28.50;63.50;;;;;;5119793;28;20217;-83
2022/07/18 09:30:25;;;;;;;5.70;4.60;;;28.50;63.50;;;;;;5122991;27;20357;-83
2022/07/18 09:32:54;;;;;;;8.60;5.05;;;28.70;64.10;;;;;;5121228;27;20229;-82
2022/07/18 09:35:24;;;;;;;6.88;4.28;;;28.80;63.70;;;;;;5121125;27;20222;-84
2022/07/18 09:38:01;;;;;;;7.07;4.97;;;28.90;63.20;;;;;;5120322;28;20244;-82
2022/07/18 09:40:30;;;;;;;5.15;4.38;;;29.00;62.80;;;;;;5121461;27;20270;-82
2022/07/18 09:42:59;;;;;;;4.40;3.97;;;29.00;62.70;;;;;;5121014;27;20222;-83
2022/07/18 09:45:29;;;;;;;5.72;4.40;;;29.00;61.80;;;;;;5121263;27;20232;-83
2022/07/18 09:47:58;;;;;;;6.78;4.63;;;28.90;61.90;;;;;;5122265;27;20229;-83
2022/07/18 09:50:27;;;;;;;6.45;4.30;;;28.90;62.10;;;;;;5120892;27;20240;-83
2022/07/18 09:53:12;;;;;;;5.47;4.38;;;29.00;62.60;;;;;;5120285;28;20222;-83
2022/07/18 09:55:44;;;;;;;7.28;4.57;;;29.00;62.50;;;;;;5122113;27;20829;-83
2022/07/18 09:58:12;;;;;;;5.95;4.45;;;29.20;62.60;;;;;;5119127;27;20221;-83
2022/07/18 10:00:39;;;;;;;6.25;3.75;;;29.40;62.40;;;;;;5121889;27;20217;-83
2022/07/18 10:03:07;;;;;;;7.70;4.75;;;29.80;62.30;;;;;;5120673;27;20265;-83
2022/07/18 10:05:36;;;;;;;6.13;3.92;;;30.20;60.00;;;;;;5121959;27;20267;-83
2022/07/18 10:08:07;;;;;;;4.82;4.30;;;30.50;59.20;;;;;;5121859;27;20236;-83
2022/07/18 10:10:35;;;;;;;7.15;3.97;;;30.70;57.60;;;;;;5137796;27;20591;-83
2022/07/18 10:13:03;;;;;;;5.95;3.92;;;30.90;58.20;;;;;;5119350;28;20237;-83
2022/07/18 10:15:32;;;;;;;5.22;4.00;;;30.90;58.00;;;;;;5121419;27;20239;-84
2022/07/18 10:17:59;;;;;;;6.63;4.43;;;30.90;58.00;;;;;;5111757;27;20865;-83
2022/07/18 10:20:28;;;;;;;5.85;4.55;;;30.80;57.40;;;;;;5106093;27;20241;-83
2022/07/18 10:22:59;;;;;;;6.15;4.63;;;30.80;56.80;;;;;;5105943;28;20618;-83
2022/07/18 10:25:28;;;;;;;5.35;4.40;;;30.80;56.40;;;;;;5105449;28;20218;-83
2022/07/18 10:28:01;;;;;;;5.32;4.35;;;30.80;56.70;;;;;;5106783;28;20300;-83
2022/07/18 10:30:34;;;;;;;5.80;4.07;;;30.80;57.10;;;;;;5069480;28;20236;-82
2022/07/18 10:33:01;;;;;;;7.97;4.60;;;30.70;56.40;;;;;;5004370;28;20234;-82
2022/07/18 10:36:00;;;;;;;6.45;4.28;;;30.80;57.00;;;;;;5005293;28;20597;-83
2022/07/18 10:38:27;;;;;;;7.57;4.95;;;31.00;56.60;;;;;;5005054;28;20228;-83
2022/07/18 10:41:10;;;;;;;4.82;4.03;;;31.10;55.70;;;;;;5003779;28;20225;-82
2022/07/18 10:43:40;;;;;;;5.20;4.55;;;31.20;55.20;;;;;;5005636;28;20229;-83
2022/07/18 10:46:09;;;;;;;6.00;4.47;;;31.30;54.70;;;;;;5005407;28;20229;-82
2022/07/18 10:48:53;;;;;;;6.25;4.90;;;31.30;55.00;;;;;;5006855;28;20658;-83
2022/07/18 10:51:28;;;;;;;6.53;4.80;;;31.30;54.90;;;;;;5005706;28;20245;-82
2022/07/18 10:54:03;;;;;;;5.70;4.22;;;31.40;54.80;;;;;;5005697;28;20741;-83
2022/07/18 10:57:09;;;;;;;5.25;4.20;;;31.50;54.50;;;;;;5005087;28;20232;-83
2022/07/18 10:59:37;;;;;;;6.55;4.00;;;31.70;55.40;;;;;;5066136;28;20746;-83
2022/07/18 11:02:07;;;;;;;5.22;4.15;;;31.80;53.80;;;;;;5010939;28;20237;-83
2022/07/18 11:04:37;;;;;;;5.90;3.80;;;31.70;53.10;;;;;;5003993;28;20237;-83
2022/07/18 11:07:08;;;;;;;6.40;4.43;;;31.70;53.80;;;;;;5003322;28;20273;-83
2022/07/18 11:09:42;;;;;;;7.63;4.40;;;31.70;53.40;;;;;;5005769;28;20235;-83
2022/07/18 11:12:21;;;;;;;6.72;4.10;;;31.50;53.00;;;;;;5041397;27;20336;-82
2022/07/18 11:15:08;;;;;;;7.38;4.25;;;31.30;53.20;;;;;;5034826;28;20243;-83
2022/07/18 11:18:04;;;;;;;6.70;4.45;;;31.10;53.60;;;;;;5001637;28;20231;-83
2022/07/18 11:20:37;;;;;;;6.13;4.25;;;31.00;53.70;;;;;;5122082;27;20282;-83
2022/07/18 11:23:05;;;;;;;6.97;4.93;;;30.80;52.80;;;;;;5105599;27;20628;-83
2022/07/18 11:25:32;;;;;;;4.93;3.88;;;30.70;53.00;;;;;;5105327;28;20948;-83
2022/07/18 11:28:00;;;;;;;7.45;4.32;;;30.60;53.40;;;;;;5106529;27;20226;-83
2022/07/18 11:30:27;;;;;;;5.68;4.00;;;30.50;52.40;;;;;;5101414;27;20229;-83
2022/07/18 11:32:54;;;;;;;6.20;4.40;;;30.30;53.00;;;;;;5090875;27;20297;-83
2022/07/18 11:35:25;;;;;;;5.15;4.18;;;30.10;53.10;;;;;;5084069;28;20231;-83
2022/07/18 11:37:53;;;;;;;5.90;4.28;;;30.00;53.70;;;;;;5086094;28;20226;-83
2022/07/18 11:40:20;;;;;;;7.93;3.78;;;29.90;54.40;;;;;;5084604;28;20227;-83
2022/07/18 11:42:48;;;;;;;6.50;4.07;;;29.80;54.70;;;;;;5084440;28;20226;-83
2022/07/18 11:45:17;;;;;;;4.10;3.58;;;29.80;53.90;;;;;;5094755;28;20235;-83
2022/07/18 11:47:49;;;;;;;4.47;3.83;;;29.80;54.10;;;;;;5104730;28;20525;-83
2022/07/18 11:50:17;;;;;;;5.10;3.78;;;29.80;54.30;;;;;;5105488;28;20249;-83
2022/07/18 11:52:44;;;;;;;4.43;3.60;;;29.70;54.30;;;;;;5105751;28;20233;-83
2022/07/18 11:55:13;;;;;;;5.43;3.75;;;29.80;54.80;;;;;;5103609;27;20229;-82
2022/07/18 11:57:40;;;;;;;5.53;3.70;;;29.70;54.50;;;;;;5105037;28;20222;-83
2022/07/18 12:00:20;;;;;;;5.10;3.63;;;29.70;54.60;;;;;;5104279;27;20619;-83
2022/07/18 12:02:47;;;;;;;3.70;3.15;;;29.60;55.10;;;;;;5106075;27;20237;-83
2022/07/18 12:05:13;;;;;;;4.80;3.80;;;29.60;55.00;;;;;;5103469;28;20230;-83
2022/07/18 12:07:40;;;;;;;6.03;3.45;;;29.60;54.80;;;;;;5105308;28;20229;-83
2022/07/18 12:10:16;;;;;;;4.53;3.30;;;29.60;54.10;;;;;;5121432;27;20221;-83
2022/07/18 12:12:43;;;;;;;5.18;4.05;;;29.60;54.60;;;;;;5104382;28;20282;-83
2022/07/18 12:15:10;;;;;;;3.92;3.53;;;29.60;54.40;;;;;;5105883;28;20577;-83
2022/07/18 12:17:46;;;;;;;5.13;3.22;;;29.50;54.40;;;;;;5104542;28;20214;-83
2022/07/18 12:20:15;;;;;;;4.18;3.47;;;29.50;54.50;;;;;;5103746;28;20541;-83
2022/07/18 12:23:09;;;;;;;4.70;3.58;;;29.40;54.10;;;;;;5103763;28;20226;-83
2022/07/18 12:26:00;;;;;;;5.68;3.58;;;29.50;54.80;;;;;;5105405;28;20226;-83
2022/07/18 12:28:28;;;;;;;5.72;3.75;;;29.60;55.30;;;;;;5103909;28;20225;-83
2022/07/18 12:30:55;;;;;;;3.95;3.55;;;29.70;55.00;;;;;;5105758;28;20589;-83
2022/07/18 12:33:23;;;;;;;5.40;3.65;;;29.80;54.90;;;;;;5105199;28;20604;-83
2022/07/18 12:35:57;;;;;;;4.47;3.13;;;29.90;54.50;;;;;;5105102;28;20222;-83
2022/07/18 12:38:23;;;;;;;7.00;3.13;;;30.00;53.30;;;;;;5105241;28;20221;-83
2022/07/18 12:40:52;;;;;;;6.90;3.33;;;30.10;54.00;;;;;;5104514;28;20248;-83
2022/07/18 12:43:25;;;;;;;5.00;3.47;;;30.20;53.60;;;;;;5103604;27;20229;-83
2022/07/18 12:45:53;;;;;;;4.40;3.33;;;30.30;53.00;;;;;;5103955;28;20302;-83
2022/07/18 12:48:19;;;;;;;4.97;3.65;;;30.50;53.60;;;;;;5105326;28;20214;-83
2022/07/18 12:50:57;;;;;;;4.40;3.30;;;30.60;53.40;;;;;;5105406;27;20232;-83
2022/07/18 12:53:24;;;;;;;6.93;3.10;;;30.80;53.00;;;;;;5103558;28;20588;-83
2022/07/18 12:55:51;;;;;;;7.38;3.17;;;31.10;53.40;;;;;;5104296;28;20367;-82
2022/07/18 12:58:18;;;;;;;4.10;3.40;;;31.30;53.00;;;;;;5104166;28;20240;-83
2022/07/18 13:00:46;;;;;;;4.75;3.25;;;31.60;52.50;;;;;;5104395;28;20280;-83
2022/07/18 13:03:13;;;;;;;5.32;3.50;;;31.80;52.10;;;;;;5103056;28;20226;-83
2022/07/18 13:05:39;;;;;;;3.40;3.08;;;32.00;52.70;;;;;;5104589;28;20798;-83
2022/07/18 13:08:09;;;;;;;4.55;3.67;;;32.10;51.60;;;;;;5104454;28;20718;-83